Main page
METAR-TAF:

METAR-TAF

Airports :

Basra International Airport

Basra, Iraq

latitude: 30-32-56N, longitude: 47-39-45E, elevation: 1 m

Current weather observation

The report was made 1 hour and 9 minutes ago, at 21:00 UTC
Wind 6 kt from the West/Southwest
Temperature 31°C
Humidity 24%
Pressure 997 hPa
Visibility 10 km or more
no clouds below 1500 m and no cumulonimbus

METAR: ORMM 222100Z 25006KT CAVOK 31/08 Q0997 NOSIG

Time: 01:09 (22:09 UTC)

Forecast

The report was made 6 hours and 9 minutes ago, at 16:00 UTC
Forecast valid from 22 at 18 UTC to 23 at 18 UTC
Wind 15 kt from the West
Visibility: 7000 m
Temporary
from 23 at 10 UTC to 23 at 16 UTC
Wind 20 kt from the West
Visibility: 4000 m
Blowing dust

TAF: ORMM 221600Z 2218/2318 28015KT 7000 NSC TEMPO 2310/2316 28020KT 4000 BLDU

Weather observations and forecasts of more than 4000 airports (METAR and TAF reports).

The available stations are represented by yellow and red dots on the map.

Hover mouse over dot to see the name of the station.

Then click to see weather observations and forecasts.

To change the map : click on the green buttons with a black cross to zoom in, on the green button with a dash to zoom out, or on the green arrows for adjacent maps.


METAR-TAF: